Time;durP1;ratioP1;P1;durP2;ratioP2;P2;SDS_P1;SDS_P2;PMS_P1;PMS_P2;Temp;Humidity;BMP_temperature;BMP_pressure;BME280_temperature;BME280_humidity;BME280_pressure;Samples;Min_cycle;Max_cycle;Signal;HPM_P1;HPM_P2
2023/01/19 00:02:15;;;;;;;15.68;9.68;;;-1.40;99.90;;;;;;4895131;29;20120;-76
2023/01/19 00:04:43;;;;;;;17.25;10.07;;;-1.40;99.90;;;;;;4908331;29;20080;-77
2023/01/19 00:07:09;;;;;;;17.55;9.27;;;-1.30;99.90;;;;;;4907955;29;20032;-76
2023/01/19 00:09:37;;;;;;;18.35;10.18;;;-1.30;99.90;;;;;;4908323;29;20318;-77
2023/01/19 00:12:04;;;;;;;16.55;9.38;;;-1.30;99.90;;;;;;4907696;29;20047;-76
2023/01/19 00:14:30;;;;;;;15.73;9.50;;;-1.30;99.90;;;;;;4922900;29;20048;-76
2023/01/19 00:16:56;;;;;;;15.95;9.57;;;-1.30;99.90;;;;;;4922081;29;20032;-76
2023/01/19 00:19:21;;;;;;;18.88;10.50;;;-1.40;99.90;;;;;;4922649;29;20307;-76
2023/01/19 00:21:47;;;;;;;18.30;9.52;;;-1.40;99.90;;;;;;4921872;29;20059;-75
2023/01/19 00:24:13;;;;;;;15.48;9.70;;;-1.40;99.90;;;;;;4922341;29;20209;-75
2023/01/19 00:26:41;;;;;;;15.00;9.00;;;-1.50;99.90;;;;;;4907275;29;20218;-75
2023/01/19 00:29:11;;;;;;;16.20;9.30;;;-1.50;99.90;;;;;;4907092;29;20028;-76
2023/01/19 06:02:28;;;;;;;19.35;10.73;;;-2.10;99.90;;;;;;5387472;23;19970;-74
2023/01/19 06:04:54;;;;;;;16.80;9.48;;;-2.10;99.90;;;;;;4914532;29;20043;-76
2023/01/19 06:07:21;;;;;;;16.60;9.82;;;-2.00;99.90;;;;;;4928080;29;20024;-75
2023/01/19 06:09:46;;;;;;;16.45;9.13;;;-1.80;99.90;;;;;;4929779;29;20024;-76
2023/01/19 06:12:12;;;;;;;16.90;9.38;;;-1.70;99.90;;;;;;4929111;29;20044;-77
2023/01/19 06:14:39;;;;;;;15.32;8.95;;;-1.70;99.90;;;;;;4933061;29;20032;-78
2023/01/19 06:17:06;;;;;;;15.05;9.35;;;-1.80;99.90;;;;;;4922556;29;20032;-76
2023/01/19 06:19:33;;;;;;;16.98;9.38;;;-1.90;99.90;;;;;;4921947;29;20032;-77
2023/01/19 06:21:59;;;;;;;14.48;8.88;;;-1.90;99.90;;;;;;4928843;29;20201;-76
2023/01/19 06:24:26;;;;;;;16.65;8.60;;;-1.80;99.90;;;;;;4926995;29;20214;-77
2023/01/19 06:26:52;;;;;;;18.20;8.77;;;-1.80;99.90;;;;;;4928524;29;20043;-77
2023/01/19 06:29:18;;;;;;;15.88;8.13;;;-1.80;99.90;;;;;;4928517;29;20063;-77
2023/01/19 06:31:44;;;;;;;15.25;8.38;;;-1.70;99.90;;;;;;4928590;29;20042;-75
2023/01/19 06:34:10;;;;;;;15.65;8.25;;;-1.60;99.90;;;;;;4928406;29;20131;-76
2023/01/19 06:36:45;;;;;;;;;;;-1.50;99.90;;;;;;4910299;29;20044;-79
2023/01/19 06:39:11;;;;;;;14.48;8.13;;;-1.40;99.90;;;;;;4911698;29;20089;-76
2023/01/19 06:41:37;;;;;;;13.68;7.80;;;-1.40;99.90;;;;;;4927619;29;20372;-75
2023/01/19 06:44:04;;;;;;;13.90;7.85;;;-1.40;99.90;;;;;;4928409;29;20031;-77
2023/01/19 06:46:31;;;;;;;12.68;7.55;;;-1.50;99.90;;;;;;4928181;29;20051;-76
2023/01/19 06:48:56;;;;;;;13.63;7.40;;;-1.50;99.90;;;;;;4927812;29;20027;-78
2023/01/19 06:51:24;;;;;;;14.05;8.13;;;-1.50;99.90;;;;;;4927041;29;20099;-76
2023/01/19 06:53:50;;;;;;;17.33;8.48;;;-1.40;99.90;;;;;;4923460;29;20226;-76
2023/01/19 06:56:16;;;;;;;14.60;8.55;;;-1.40;99.90;;;;;;4906957;29;20072;-76
2023/01/19 06:58:42;;;;;;;17.02;8.50;;;-1.50;99.90;;;;;;4906273;29;20394;-78
2023/01/19 07:01:08;;;;;;;12.73;7.45;;;-1.50;99.90;;;;;;4907006;29;20032;-74
2023/01/19 07:03:35;;;;;;;15.07;8.30;;;-1.50;99.90;;;;;;4869570;29;20057;-72
2023/01/19 07:06:01;;;;;;;17.13;9.00;;;-1.60;99.90;;;;;;4875246;29;20346;-72
2023/01/19 07:08:28;;;;;;;16.23;8.27;;;-1.60;99.90;;;;;;4887963;29;20119;-72
2023/01/19 07:11:08;;;;;;;14.27;7.80;;;-1.70;99.90;;;;;;4873518;29;20057;-73
2023/01/19 07:13:35;;;;;;;13.80;7.60;;;-1.70;99.90;;;;;;4868300;29;20111;-74
2023/01/19 07:16:08;;;;;;;13.80;7.38;;;-1.70;99.90;;;;;;4885440;29;20033;-70
2023/01/19 07:18:35;;;;;;;13.05;7.45;;;-1.60;99.90;;;;;;4887142;29;20051;-71
2023/01/19 07:21:01;;;;;;;12.80;7.57;;;-1.60;99.90;;;;;;4887948;29;20052;-73
2023/01/19 07:23:29;;;;;;;14.27;7.82;;;-1.60;99.90;;;;;;4887142;29;20033;-70
2023/01/19 07:25:56;;;;;;;12.55;7.20;;;-1.50;99.90;;;;;;4907754;29;20096;-71
2023/01/19 07:28:21;;;;;;;12.55;7.25;;;-1.40;99.90;;;;;;4908170;29;20076;-70
2023/01/19 07:30:51;;;;;;;14.23;7.43;;;-1.40;99.90;;;;;;4908730;29;20128;-70
2023/01/19 07:33:16;;;;;;;13.15;7.40;;;-1.40;99.90;;;;;;4906819;29;20032;-69
2023/01/19 07:35:49;;;;;;;14.73;6.85;;;-1.40;99.90;;;;;;4907454;29;20036;-73
2023/01/19 07:38:17;;;;;;;14.35;7.28;;;-1.40;99.90;;;;;;4907743;29;20213;-70
2023/01/19 07:40:44;;;;;;;13.75;7.18;;;-1.40;99.90;;;;;;4908558;29;20076;-72
2023/01/19 07:43:10;;;;;;;11.93;6.75;;;-1.40;99.90;;;;;;4908234;29;20048;-72
2023/01/19 07:45:36;;;;;;;12.88;6.22;;;-1.40;99.90;;;;;;4906618;29;20053;-72
2023/01/19 07:48:02;;;;;;;13.80;6.63;;;-1.40;99.90;;;;;;4907996;29;20029;-71
2023/01/19 07:50:28;;;;;;;12.85;6.57;;;-1.40;99.90;;;;;;4907850;29;20063;-71
2023/01/19 07:52:54;;;;;;;13.18;6.43;;;-1.50;99.90;;;;;;4908130;29;20036;-72
2023/01/19 07:55:22;;;;;;;12.98;6.90;;;-1.50;99.90;;;;;;4908008;29;20029;-71
2023/01/19 07:57:51;;;;;;;12.57;6.87;;;-1.60;99.90;;;;;;4908639;29;20103;-71
2023/01/19 08:00:20;;;;;;;14.05;6.80;;;-1.60;99.90;;;;;;4907778;29;20035;-70
2023/01/19 08:02:48;;;;;;;13.90;6.72;;;-1.70;99.90;;;;;;4907562;29;20045;-72
2023/01/19 08:05:15;;;;;;;;;;;-1.70;99.90;;;;;;4907474;29;20024;-71
2023/01/19 08:07:41;;;;;;;13.45;6.10;;;-1.70;99.90;;;;;;4907912;29;19907;-71
2023/01/19 08:10:07;;;;;;;9.77;5.75;;;-1.50;99.90;;;;;;4907994;29;20366;-71
2023/01/19 08:12:33;;;;;;;8.88;5.03;;;-1.40;99.90;;;;;;4903973;29;20305;-71
2023/01/19 08:14:59;;;;;;;10.05;4.72;;;-1.30;99.90;;;;;;4904468;29;20032;-71
2023/01/19 08:17:24;;;;;;;9.60;4.90;;;-1.10;99.90;;;;;;4907115;29;20306;-72
2023/01/19 08:19:53;;;;;;;12.98;5.97;;;-0.90;99.90;;;;;;4907502;29;20254;-71
2023/01/19 08:22:19;;;;;;;9.73;4.95;;;-0.80;99.90;;;;;;4907204;29;20088;-70
2023/01/19 08:24:45;;;;;;;11.73;5.43;;;-0.80;99.90;;;;;;4907472;29;20290;-71
2023/01/19 08:27:10;;;;;;;9.20;4.85;;;-0.70;99.90;;;;;;4907737;29;20145;-72
2023/01/19 08:29:36;;;;;;;8.00;4.80;;;-0.80;99.90;;;;;;4907344;29;20035;-72
2023/01/19 08:32:02;;;;;;;9.88;4.63;;;-0.70;99.90;;;;;;4902404;29;20037;-72
2023/01/19 08:34:29;;;;;;;11.43;5.38;;;-0.70;99.90;;;;;;4896903;29;20104;-72
2023/01/19 08:36:56;;;;;;;9.82;4.68;;;-0.60;99.90;;;;;;4907095;29;20027;-72
2023/01/19 08:39:23;;;;;;;9.65;5.15;;;-0.60;99.90;;;;;;4906972;29;20316;-72
2023/01/19 08:41:52;;;;;;;9.50;4.85;;;-0.60;99.90;;;;;;4907273;29;20036;-71
2023/01/19 08:44:18;;;;;;;7.85;4.57;;;-0.60;99.90;;;;;;4906951;29;20032;-72
2023/01/19 08:46:44;;;;;;;12.05;5.55;;;-0.60;99.90;;;;;;4907393;29;20050;-71
2023/01/19 08:49:10;;;;;;;9.25;4.80;;;-0.50;99.90;;;;;;4907374;29;20310;-72
2023/01/19 08:51:36;;;;;;;7.85;4.63;;;-0.40;99.90;;;;;;4906911;29;20036;-71
2023/01/19 08:54:03;;;;;;;8.95;4.80;;;-0.30;99.90;;;;;;4906946;29;20032;-72
2023/01/19 08:56:29;;;;;;;8.25;4.55;;;-0.10;99.90;;;;;;4906366;29;20099;-72
2023/01/19 08:58:58;;;;;;;8.85;4.30;;;-0.10;99.90;;;;;;4906808;29;20217;-77
2023/01/19 09:01:24;;;;;;;10.65;4.72;;;0.00;99.90;;;;;;4884631;29;20028;-77
2023/01/19 09:03:50;;;;;;;8.35;4.47;;;0.10;99.90;;;;;;4892804;29;20041;-77
2023/01/19 09:06:37;;;;;;;8.38;4.25;;;0.20;99.90;;;;;;4902877;29;20322;-78
2023/01/19 09:09:10;;;;;;;8.63;4.45;;;0.20;99.90;;;;;;4906899;29;20363;-79
2023/01/19 09:11:45;;;;;;;9.07;4.57;;;0.50;99.90;;;;;;4890133;29;20044;-78
2023/01/19 09:14:22;;;;;;;8.43;4.82;;;0.60;99.90;;;;;;4905231;29;20087;-77
2023/01/19 09:16:48;;;;;;;8.50;4.63;;;0.70;99.90;;;;;;4906767;29;20056;-77
2023/01/19 09:19:14;;;;;;;9.15;4.53;;;0.90;99.90;;;;;;4905639;29;20020;-80
2023/01/19 09:21:43;;;;;;;9.63;4.70;;;1.00;99.90;;;;;;4905480;29;20039;-77
2023/01/19 09:24:09;;;;;;;7.47;4.32;;;1.10;99.90;;;;;;4907084;29;20040;-78
2023/01/19 09:26:39;;;;;;;8.07;4.07;;;1.20;99.90;;;;;;4906626;29;20028;-79
2023/01/19 09:29:05;;;;;;;7.93;4.75;;;1.30;99.90;;;;;;4906994;29;20066;-76
2023/01/19 09:31:34;;;;;;;9.32;3.95;;;1.40;99.90;;;;;;4905191;29;20040;-77
2023/01/19 09:34:24;;;;;;;8.35;4.50;;;1.40;99.90;;;;;;4903822;29;20099;-79
2023/01/19 09:36:51;;;;;;;6.78;4.10;;;1.40;99.90;;;;;;4894826;29;20032;-77
2023/01/19 09:39:17;;;;;;;9.05;4.55;;;1.30;99.90;;;;;;4908866;29;20021;-80
2023/01/19 09:41:53;;;;;;;10.52;4.55;;;1.30;99.90;;;;;;4912948;29;20054;-83
2023/01/19 09:44:34;;;;;;;8.23;4.28;;;1.30;99.90;;;;;;4910923;29;20307;-79
2023/01/19 09:47:04;;;;;;;7.40;4.32;;;1.30;99.90;;;;;;4912234;29;20025;-81
2023/01/19 09:49:44;;;;;;;6.53;3.90;;;1.40;99.90;;;;;;4912132;29;20025;-77
2023/01/19 09:52:19;;;;;;;7.00;3.72;;;1.50;99.90;;;;;;4909351;29;20033;-80
2023/01/19 09:54:54;;;;;;;7.32;3.80;;;1.50;99.90;;;;;;4912133;29;20053;-78
2023/01/19 09:57:32;;;;;;;6.93;3.97;;;1.50;99.90;;;;;;4912603;29;20028;-79
2023/01/19 10:00:12;;;;;;;12.77;7.45;;;1.70;99.90;;;;;;4910935;29;20037;-79
2023/01/19 10:02:53;;;;;;;8.05;4.15;;;1.70;99.90;;;;;;4909590;29;20235;-77
2023/01/19 10:05:44;;;;;;;7.50;4.10;;;1.80;99.90;;;;;;4895369;29;20261;-80
2023/01/19 10:08:48;;;;;;;6.78;4.25;;;1.90;99.90;;;;;;4907368;29;20028;-78
2023/01/19 10:11:39;;;;;;;6.35;3.85;;;1.90;99.90;;;;;;4911066;29;20037;-76
2023/01/19 10:14:31;;;;;;;6.63;3.55;;;2.00;99.90;;;;;;4894975;29;20076;-78
2023/01/19 10:17:20;;;;;;;8.45;3.90;;;2.00;99.90;;;;;;4895553;29;20052;-76
2023/01/19 10:19:52;;;;;;;8.60;4.03;;;1.90;99.90;;;;;;4910979;29;20036;-79
2023/01/19 10:22:27;;;;;;;9.65;3.85;;;2.00;99.90;;;;;;4895314;29;20052;-79
2023/01/19 10:25:06;;;;;;;7.05;4.25;;;2.00;99.90;;;;;;4895131;29;20072;-78
2023/01/19 10:27:34;;;;;;;7.43;4.35;;;2.10;99.90;;;;;;4909776;29;20064;-78
2023/01/19 10:30:00;;;;;;;8.10;4.55;;;2.20;99.90;;;;;;4889688;29;20031;-78
2023/01/19 10:32:31;;;;;;;10.98;5.18;;;2.30;99.90;;;;;;4909915;29;20032;-77
2023/01/19 10:34:58;;;;;;;7.55;4.40;;;2.40;99.90;;;;;;4910603;29;20174;-75
2023/01/19 10:37:28;;;;;;;6.82;3.92;;;2.60;99.90;;;;;;4910003;29;20302;-75
2023/01/19 10:40:00;;;;;;;7.80;4.15;;;2.70;99.90;;;;;;4894666;29;20043;-75
2023/01/19 10:42:29;;;;;;;7.78;4.28;;;2.60;99.90;;;;;;4910000;29;20184;-77
2023/01/19 10:44:55;;;;;;;7.97;4.25;;;2.60;99.90;;;;;;4909941;29;20052;-77
2023/01/19 10:47:32;;;;;;;7.50;4.07;;;2.90;99.90;;;;;;4908833;29;20048;-76
2023/01/19 10:49:58;;;;;;;8.00;3.75;;;3.00;99.90;;;;;;4909863;29;20031;-75
2023/01/19 10:52:32;;;;;;;7.05;3.70;;;3.20;99.90;;;;;;4891204;29;20041;-77
2023/01/19 10:55:02;;;;;;;5.82;3.40;;;3.40;99.90;;;;;;4904627;29;20068;-76
2023/01/19 10:57:35;;;;;;;4.63;2.95;;;3.30;99.60;;;;;;4907818;29;20025;-76
2023/01/19 11:00:03;;;;;;;5.97;3.58;;;3.00;99.50;;;;;;4906418;29;20036;-75
2023/01/19 11:02:31;;;;;;;6.75;3.85;;;2.80;99.80;;;;;;4890005;29;20111;-78
2023/01/19 11:05:23;;;;;;;7.88;3.95;;;2.70;99.90;;;;;;4888874;29;20267;-76
2023/01/19 11:07:49;;;;;;;7.90;3.67;;;2.60;99.90;;;;;;4904956;29;20044;-75
2023/01/19 11:10:16;;;;;;;6.32;4.05;;;2.50;99.90;;;;;;4900038;29;20028;-77
2023/01/19 11:13:11;;;;;;;7.93;3.92;;;2.50;99.90;;;;;;4891582;29;20040;-76
2023/01/19 11:15:58;;;;;;;;;;;2.60;99.90;;;;;;4908129;29;20087;-77
2023/01/19 11:18:33;;;;;;;6.72;3.67;;;2.80;99.90;;;;;;4907349;29;19977;-77
2023/01/19 11:21:05;;;;;;;8.90;4.50;;;2.50;99.90;;;;;;4907339;29;20160;-77
2023/01/19 11:23:49;;;;;;;5.50;3.65;;;2.60;99.90;;;;;;4906188;29;20052;-75
2023/01/19 11:26:33;;;;;;;6.70;3.83;;;2.70;99.90;;;;;;4908767;29;20025;-75
2023/01/19 11:29:04;;;;;;;7.18;3.40;;;2.80;99.90;;;;;;4893434;29;20222;-73
2023/01/19 11:31:32;;;;;;;5.70;3.55;;;2.90;99.90;;;;;;4889052;29;20104;-76
2023/01/19 11:34:00;;;;;;;6.00;3.75;;;2.90;99.90;;;;;;4889722;29;20040;-74
2023/01/19 11:36:35;;;;;;;;;;;2.80;99.90;;;;;;4890004;29;20045;-75
2023/01/19 11:39:24;;;;;;;8.88;3.63;;;2.90;99.90;;;;;;4889470;29;19948;-76
2023/01/19 11:41:56;;;;;;;6.88;4.03;;;3.10;99.90;;;;;;4888251;29;20036;-74
2023/01/19 11:44:28;;;;;;;7.63;3.97;;;3.30;99.90;;;;;;4889654;29;20028;-75
2023/01/19 11:47:09;;;;;;;9.15;4.05;;;3.20;99.80;;;;;;4888664;29;20307;-75
2023/01/19 11:49:48;;;;;;;7.85;4.20;;;3.30;99.90;;;;;;4893213;29;20104;-75
2023/01/19 11:52:23;;;;;;;8.85;4.60;;;3.40;99.90;;;;;;4889324;29;20112;-75
2023/01/19 11:55:05;;;;;;;7.80;4.70;;;3.50;99.70;;;;;;4902472;29;20036;-76
2023/01/19 11:57:37;;;;;;;6.75;3.42;;;3.50;99.70;;;;;;4904728;29;20055;-76
2023/01/19 12:00:19;;;;;;;9.98;3.80;;;3.60;99.20;;;;;;4920687;29;20402;-79
2023/01/19 12:03:05;;;;;;;6.78;3.15;;;3.50;99.20;;;;;;4905640;29;20065;-78
2023/01/19 12:05:33;;;;;;;8.68;3.15;;;3.40;99.30;;;;;;4907941;29;20032;-75
2023/01/19 12:08:04;;;;;;;6.05;2.85;;;3.30;99.20;;;;;;4907887;29;20214;-76
2023/01/19 12:10:34;;;;;;;7.78;3.28;;;3.20;99.30;;;;;;4907250;29;20099;-75
2023/01/19 12:13:01;;;;;;;7.07;3.33;;;3.00;99.70;;;;;;4907640;29;20147;-76
2023/01/19 12:15:43;;;;;;;8.48;3.40;;;3.10;99.90;;;;;;4907354;29;20024;-78
2023/01/19 12:18:17;;;;;;;6.47;3.42;;;3.10;99.90;;;;;;4907979;29;20102;-77
2023/01/19 12:20:47;;;;;;;7.60;3.03;;;3.00;99.90;;;;;;4907681;29;20100;-74
2023/01/19 12:23:39;;;;;;;6.65;3.42;;;3.00;99.90;;;;;;4906860;29;20037;-77
2023/01/19 12:26:26;;;;;;;7.72;3.40;;;3.00;99.90;;;;;;4904707;29;20044;-77
2023/01/19 12:29:05;;;;;;;7.55;3.33;;;2.90;99.90;;;;;;4906973;29;20076;-76
2023/01/19 12:31:31;;;;;;;8.48;3.78;;;2.90;99.90;;;;;;4896812;29;20115;-76
2023/01/19 12:34:29;;;;;;;6.88;3.25;;;2.90;99.90;;;;;;4887714;29;20041;-77
2023/01/19 12:37:01;;;;;;;8.82;3.88;;;2.90;99.90;;;;;;4907102;29;20310;-77
2023/01/19 12:39:27;;;;;;;7.75;4.03;;;2.90;99.90;;;;;;4907148;29;20029;-74
2023/01/19 12:42:14;;;;;;;7.05;3.45;;;2.90;99.90;;;;;;4907345;29;20063;-77
2023/01/19 12:44:41;;;;;;;8.82;3.50;;;2.80;99.90;;;;;;4894865;29;20084;-77
2023/01/19 12:47:12;;;;;;;7.15;4.03;;;2.80;99.90;;;;;;4888673;29;20044;-82
2023/01/19 12:49:49;;;;;;;7.15;3.60;;;2.70;99.90;;;;;;4890502;29;20051;-77
2023/01/19 12:52:46;;;;;;;7.65;3.80;;;2.70;99.90;;;;;;4906866;29;20340;-80
2023/01/19 12:55:12;;;;;;;8.25;3.42;;;2.70;99.90;;;;;;4888316;29;20045;-76
2023/01/19 12:57:40;;;;;;;7.35;3.55;;;2.70;99.90;;;;;;4889819;29;20036;-76
2023/01/19 13:00:21;;;;;;;9.27;4.75;;;2.70;99.90;;;;;;4905734;29;20064;-79
2023/01/19 13:02:48;;;;;;;5.45;3.55;;;2.60;99.90;;;;;;4905749;29;20120;-78
2023/01/19 13:05:20;;;;;;;6.40;3.40;;;2.60;99.90;;;;;;4906958;29;20080;-78
2023/01/19 13:08:01;;;;;;;6.32;3.40;;;2.60;99.90;;;;;;4905420;29;20067;-76
2023/01/19 13:10:55;;;;;;;6.85;4.45;;;2.60;99.90;;;;;;4903869;29;20029;-76
2023/01/19 13:13:28;;;;;;;8.15;4.20;;;2.50;99.90;;;;;;4906747;29;20161;-79
2023/01/19 13:15:55;;;;;;;10.05;4.75;;;2.60;99.90;;;;;;4906700;29;20032;-77
2023/01/19 13:18:30;;;;;;;7.47;3.40;;;2.60;99.90;;;;;;4905876;29;20076;-78
2023/01/19 13:21:02;;;;;;;7.40;3.40;;;2.60;99.90;;;;;;4905905;29;20091;-78
2023/01/19 13:23:50;;;;;;;9.05;4.78;;;2.50;99.90;;;;;;4907036;29;20032;-78
2023/01/19 13:26:23;;;;;;;8.98;4.07;;;2.60;99.90;;;;;;4905789;29;20043;-78
2023/01/19 13:28:54;;;;;;;9.05;4.38;;;2.50;99.90;;;;;;4902741;29;20471;-79
2023/01/19 13:31:21;;;;;;;10.25;4.55;;;2.40;99.90;;;;;;4906617;29;20033;-77
2023/01/19 13:33:52;;;;;;;10.18;4.50;;;2.40;99.90;;;;;;4889597;29;20313;-79
2023/01/19 13:36:20;;;;;;;9.02;4.65;;;2.40;99.90;;;;;;4905724;29;20033;-77
2023/01/19 13:38:47;;;;;;;;;;;2.30;99.90;;;;;;4907430;29;20254;-81
2023/01/19 13:41:19;;;;;;;7.68;4.70;;;2.30;99.90;;;;;;4906515;29;19966;-79
2023/01/19 13:43:46;;;;;;;7.72;4.18;;;2.30;99.90;;;;;;4906516;29;20028;-76
2023/01/19 13:46:13;;;;;;;9.63;4.70;;;2.30;99.90;;;;;;4906630;29;20028;-79
2023/01/19 13:48:54;;;;;;;8.47;5.03;;;2.30;99.90;;;;;;4905072;29;20314;-77
2023/01/19 13:51:20;;;;;;;9.50;5.15;;;2.40;99.90;;;;;;4905697;29;20095;-77
2023/01/19 13:53:56;;;;;;;8.88;4.70;;;2.40;99.90;;;;;;4907256;29;20036;-77
2023/01/19 13:56:24;;;;;;;9.88;4.82;;;2.30;99.90;;;;;;4907487;29;20149;-76
2023/01/19 13:59:19;;;;;;;8.68;4.93;;;2.40;99.90;;;;;;4902339;29;20237;-77
2023/01/19 14:01:46;;;;;;;7.60;4.18;;;2.50;99.90;;;;;;4882383;29;20357;-78
2023/01/19 14:04:26;;;;;;;9.32;4.82;;;2.40;99.90;;;;;;4888018;29;20047;-79
2023/01/19 14:06:54;;;;;;;9.45;5.05;;;2.30;99.90;;;;;;4901920;29;20044;-79
2023/01/19 14:09:21;;;;;;;7.75;4.80;;;2.30;99.90;;;;;;4887796;29;20037;-79
2023/01/19 14:12:13;;;;;;;8.65;5.05;;;2.20;99.90;;;;;;4886566;29;20342;-79
2023/01/19 14:14:43;;;;;;;8.70;5.00;;;2.20;99.90;;;;;;4886240;29;20037;-78
2023/01/19 14:17:21;;;;;;;10.20;5.10;;;2.20;99.90;;;;;;4887854;29;20223;-80
2023/01/19 14:19:49;;;;;;;8.23;4.53;;;2.10;99.90;;;;;;4887585;29;20041;-78
2023/01/19 14:22:15;;;;;;;9.88;4.72;;;2.10;99.90;;;;;;4888348;29;20188;-79
2023/01/19 14:24:41;;;;;;;7.10;4.72;;;2.10;99.90;;;;;;4889695;29;20040;-77
2023/01/19 14:27:09;;;;;;;8.43;5.13;;;2.10;99.90;;;;;;4900610;29;20112;-78
2023/01/19 14:29:36;;;;;;;8.23;4.55;;;2.10;99.90;;;;;;4909297;29;20020;-78
2023/01/19 14:32:02;;;;;;;9.13;5.28;;;2.10;99.90;;;;;;4909791;29;20036;-80
2023/01/19 14:34:32;;;;;;;9.23;5.47;;;2.00;99.90;;;;;;4909597;29;20072;-78
2023/01/19 14:36:59;;;;;;;10.25;5.30;;;2.00;99.90;;;;;;4908567;29;20103;-79
2023/01/19 14:39:28;;;;;;;10.27;5.07;;;2.00;99.90;;;;;;4909675;29;20099;-77
2023/01/19 14:41:57;;;;;;;10.35;5.65;;;2.00;99.90;;;;;;4909195;29;20255;-77
2023/01/19 14:44:28;;;;;;;11.05;5.53;;;2.00;99.90;;;;;;4909431;29;20192;-79
2023/01/19 14:46:55;;;;;;;9.55;5.30;;;2.00;99.90;;;;;;4908827;29;20183;-76
2023/01/19 14:49:31;;;;;;;9.25;5.75;;;2.10;99.90;;;;;;4908543;29;20322;-79
2023/01/19 14:51:58;;;;;;;13.38;5.75;;;2.10;99.90;;;;;;4908815;29;20311;-80
2023/01/19 14:54:34;;;;;;;9.43;5.10;;;2.10;99.90;;;;;;4892615;29;20314;-78
2023/01/19 14:56:59;;;;;;;12.02;5.68;;;2.00;99.90;;;;;;4908160;29;20329;-77
2023/01/19 14:59:25;;;;;;;10.40;5.70;;;2.00;99.90;;;;;;4908991;29;20032;-77
2023/01/19 15:01:52;;;;;;;10.27;5.82;;;1.90;99.90;;;;;;4906970;29;20065;-77
2023/01/19 15:04:17;;;;;;;9.40;5.45;;;2.00;99.90;;;;;;4907706;29;20032;-78
2023/01/19 15:06:44;;;;;;;13.48;5.20;;;2.00;99.90;;;;;;4907255;29;20064;-78
2023/01/19 15:09:14;;;;;;;10.57;5.78;;;2.00;99.90;;;;;;4907427;29;20028;-78
2023/01/19 15:11:41;;;;;;;11.32;6.20;;;1.90;99.90;;;;;;4907479;29;20040;-78
2023/01/19 15:14:13;;;;;;;13.30;5.95;;;1.90;99.90;;;;;;4909146;29;20099;-77
2023/01/19 15:16:40;;;;;;;11.90;5.70;;;1.90;99.90;;;;;;4909254;29;20044;-78
2023/01/19 15:19:08;;;;;;;9.10;5.30;;;1.90;99.90;;;;;;4908193;29;20044;-79
2023/01/19 15:21:34;;;;;;;10.35;5.50;;;1.90;99.90;;;;;;4909437;29;20089;-79
2023/01/19 15:24:00;;;;;;;11.18;6.13;;;1.90;99.90;;;;;;4907614;29;20056;-79
2023/01/19 15:26:26;;;;;;;9.32;5.43;;;1.90;99.90;;;;;;4907784;29;20044;-80
2023/01/19 15:28:52;;;;;;;12.00;5.95;;;1.90;99.90;;;;;;4908350;29;20028;-77
2023/01/19 15:31:20;;;;;;;15.10;5.93;;;1.90;99.90;;;;;;4908585;29;20339;-79
2023/01/19 15:33:46;;;;;;;9.13;5.50;;;1.90;99.90;;;;;;4907115;29;20033;-78
2023/01/19 15:36:14;;;;;;;9.55;5.38;;;1.90;99.90;;;;;;4907777;29;20037;-76
2023/01/19 15:38:39;;;;;;;12.90;6.07;;;1.90;99.90;;;;;;4907198;29;20378;-80
2023/01/19 15:41:17;;;;;;;9.90;5.80;;;1.90;99.90;;;;;;4908498;29;20036;-78
2023/01/19 15:43:43;;;;;;;8.35;5.50;;;1.90;99.90;;;;;;4907415;29;20036;-77
2023/01/19 15:46:12;;;;;;;8.98;5.50;;;1.90;99.90;;;;;;4908456;29;20047;-75
2023/01/19 15:48:37;;;;;;;9.48;5.28;;;1.90;99.90;;;;;;4907002;29;20028;-77
2023/01/19 15:51:04;;;;;;;8.88;5.47;;;1.80;99.90;;;;;;4907509;29;20031;-77
2023/01/19 15:53:30;;;;;;;9.52;5.22;;;1.80;99.90;;;;;;4907225;29;20067;-78
2023/01/19 15:55:56;;;;;;;10.32;5.72;;;1.80;99.90;;;;;;4907988;29;20028;-78
2023/01/19 15:58:23;;;;;;;11.05;5.40;;;1.80;99.90;;;;;;4922029;29;20073;-79
2023/01/19 16:00:54;;;;;;;10.10;6.05;;;1.80;99.90;;;;;;4907616;29;20033;-77
2023/01/19 16:03:19;;;;;;;10.60;6.07;;;1.90;99.90;;;;;;4891550;29;20258;-78
2023/01/19 16:05:46;;;;;;;9.55;6.07;;;1.90;99.90;;;;;;4906943;29;20126;-78
2023/01/19 16:08:12;;;;;;;11.82;6.45;;;1.90;99.90;;;;;;4908061;29;20041;-77
2023/01/19 16:10:39;;;;;;;11.32;5.80;;;1.90;99.90;;;;;;4906137;29;20096;-77
2023/01/19 16:13:05;;;;;;;10.02;6.25;;;1.90;99.90;;;;;;4906725;29;20391;-78
2023/01/19 16:15:34;;;;;;;12.02;6.45;;;1.80;99.90;;;;;;4906504;29;20047;-78
2023/01/19 16:18:00;;;;;;;9.60;5.85;;;1.80;99.90;;;;;;4906245;29;20036;-79
2023/01/19 16:20:34;;;;;;;12.13;6.20;;;1.70;99.90;;;;;;4908038;29;20032;-77
2023/01/19 16:23:00;;;;;;;13.00;6.78;;;1.70;99.90;;;;;;4907446;29;20322;-78
2023/01/19 16:25:27;;;;;;;12.45;6.07;;;1.70;99.90;;;;;;4907813;29;20069;-78
2023/01/19 16:27:53;;;;;;;11.75;6.55;;;1.70;99.90;;;;;;4890459;29;20036;-76
2023/01/19 16:30:20;;;;;;;10.90;6.10;;;1.70;99.90;;;;;;4907773;29;20070;-79
2023/01/19 16:32:47;;;;;;;15.93;6.90;;;1.70;99.90;;;;;;4905902;29;20028;-82
2023/01/19 16:35:14;;;;;;;13.82;7.20;;;1.70;99.90;;;;;;4907352;29;20326;-77
2023/01/19 16:37:40;;;;;;;14.15;6.82;;;1.70;99.90;;;;;;4907055;29;20028;-78
2023/01/19 16:40:07;;;;;;;16.95;6.80;;;1.60;99.90;;;;;;4906568;29;20103;-78
2023/01/19 16:42:33;;;;;;;10.50;6.15;;;1.60;99.90;;;;;;4906615;29;20246;-76
2023/01/19 16:45:02;;;;;;;10.18;6.25;;;1.50;99.90;;;;;;4906894;29;20044;-79
2023/01/19 16:47:30;;;;;;;11.48;6.07;;;1.50;99.90;;;;;;4907343;29;20104;-78
2023/01/19 16:49:58;;;;;;;13.13;6.73;;;1.40;99.90;;;;;;4921339;29;20042;-80
2023/01/19 16:52:27;;;;;;;12.80;6.45;;;1.30;99.90;;;;;;4905465;29;20639;-77
2023/01/19 16:54:53;;;;;;;12.93;6.43;;;1.30;99.90;;;;;;4905772;29;20040;-77
2023/01/19 16:57:19;;;;;;;11.68;6.03;;;1.20;99.90;;;;;;4906034;29;20024;-76
2023/01/19 16:59:45;;;;;;;11.95;6.60;;;1.20;99.90;;;;;;4904282;29;20063;-79
2023/01/19 17:02:10;;;;;;;91.50;41.60;;;1.10;99.90;;;;;;4894753;29;20215;-77
2023/01/19 17:04:36;;;;;;;35.42;17.40;;;1.10;99.90;;;;;;4905688;29;20028;-76
2023/01/19 17:07:02;;;;;;;28.38;10.57;;;1.20;99.90;;;;;;4889984;29;20184;-79
2023/01/19 17:09:28;;;;;;;14.35;7.55;;;1.30;99.90;;;;;;4890216;29;20307;-77
2023/01/19 17:11:54;;;;;;;14.13;7.43;;;1.40;99.90;;;;;;4890113;29;20056;-77
2023/01/19 17:14:20;;;;;;;17.63;8.32;;;1.40;99.90;;;;;;4905857;29;20076;-77
2023/01/19 17:16:47;;;;;;;13.93;7.90;;;1.50;99.90;;;;;;4905084;29;20028;-78
2023/01/19 17:19:16;;;;;;;15.52;7.32;;;1.60;99.90;;;;;;4905687;29;20095;-77
2023/01/19 17:21:45;;;;;;;15.02;6.70;;;1.60;99.90;;;;;;4905067;29;20029;-78
2023/01/19 17:24:11;;;;;;;12.45;6.00;;;1.70;99.90;;;;;;4905624;29;20342;-79
2023/01/19 17:26:37;;;;;;;13.98;6.78;;;1.70;99.90;;;;;;4905766;29;20032;-79
2023/01/19 17:29:08;;;;;;;11.93;7.15;;;1.60;99.90;;;;;;4905043;29;20103;-76
2023/01/19 17:31:34;;;;;;;11.43;6.95;;;1.50;99.90;;;;;;4905660;29;20353;-78
2023/01/19 17:34:01;;;;;;;10.88;6.60;;;1.40;99.90;;;;;;4904916;29;20028;-77
2023/01/19 17:36:30;;;;;;;13.20;6.15;;;1.40;99.90;;;;;;4905955;29;20028;-78
2023/01/19 17:38:57;;;;;;;10.48;6.70;;;1.40;99.90;;;;;;4906432;29;20337;-77
2023/01/19 17:41:31;;;;;;;12.82;6.85;;;1.40;99.90;;;;;;4905487;29;20044;-75
2023/01/19 17:43:58;;;;;;;12.30;6.78;;;1.40;99.90;;;;;;4921014;29;20032;-76
2023/01/19 17:46:26;;;;;;;11.63;6.55;;;1.40;99.90;;;;;;4906262;29;20045;-77
2023/01/19 17:48:56;;;;;;;9.93;6.28;;;1.30;99.90;;;;;;4907320;29;20032;-77
2023/01/19 17:51:22;;;;;;;13.13;6.22;;;1.30;99.90;;;;;;4907098;29;20222;-76
2023/01/19 17:53:49;;;;;;;11.57;6.75;;;1.20;99.90;;;;;;4905055;29;20333;-76
2023/01/19 17:56:20;;;;;;;11.05;6.47;;;1.20;99.90;;;;;;4906573;29;20039;-76
2023/01/19 17:58:46;;;;;;;13.15;6.57;;;1.10;99.90;;;;;;4909633;29;20043;-76
2023/01/19 18:01:18;;;;;;;10.18;6.15;;;1.00;99.90;;;;;;4908897;29;20036;-76
2023/01/19 18:03:45;;;;;;;12.32;6.90;;;1.00;99.90;;;;;;4909810;29;20060;-78
2023/01/19 18:06:11;;;;;;;12.07;7.07;;;1.00;99.90;;;;;;4909136;29;20331;-76
2023/01/19 18:08:39;;;;;;;14.65;7.10;;;1.00;99.90;;;;;;4910267;29;20036;-76
2023/01/19 18:11:06;;;;;;;11.80;7.03;;;0.90;99.90;;;;;;4893035;29;20067;-75
2023/01/19 18:13:33;;;;;;;14.80;7.75;;;1.00;99.90;;;;;;4909836;29;20143;-77
2023/01/19 18:16:02;;;;;;;12.57;7.03;;;1.00;99.90;;;;;;4908328;29;20108;-77
2023/01/19 18:18:32;;;;;;;13.80;7.35;;;0.90;99.90;;;;;;4909628;29;20278;-76
2023/01/19 18:20:59;;;;;;;13.63;7.55;;;0.90;99.90;;;;;;4907604;29;20040;-74
2023/01/19 18:23:26;;;;;;;14.70;7.90;;;0.90;99.90;;;;;;4893209;29;20028;-74
2023/01/19 18:26:06;;;;;;;15.15;8.15;;;0.80;99.90;;;;;;4907728;29;20615;-74
2023/01/19 18:28:32;;;;;;;16.70;8.48;;;0.80;99.90;;;;;;4893178;29;20115;-75
2023/01/19 18:30:58;;;;;;;13.15;7.50;;;0.80;99.90;;;;;;4892537;29;20076;-74
2023/01/19 18:33:25;;;;;;;12.45;7.40;;;0.80;99.90;;;;;;4892749;29;20330;-75
2023/01/19 18:35:51;;;;;;;13.68;7.28;;;0.80;99.90;;;;;;4909017;29;20091;-74
2023/01/19 18:38:17;;;;;;;14.20;7.15;;;0.80;99.90;;;;;;4909678;29;20033;-74